Red Owl, South Dakota
Current Conditions -  °F | °C
As of 9:58 PM on Thursday 30 Oct 2014 (Local Time) from KRCA Reporting Station
Overcast Overcast  
Wind Chill: -1°   Ceiling: 1800
Heat Index:   Visibility: 10mi
Dew Point: -1°   Wind: 5mph
Humidity: 88%   Direction: 160°SSE
Pressure: 30.47"   Gusts: NA
Location:  44.7°N, 102.55°W
Report Text: KRCA 310358Z AUTO 16004KT 10SM OVC018 01/M01 A3047 RMK AO2 SLP338 T00111007 $
Loading
Personal Weather Stations






























Interactive Weather Map
Tropical Storm Tracking
New forecast layout! Learn more

10-Day Weather Forecast

Advertisements
Track Severe Weather on mobile